FranceFixed distance
Luchon Aneto Trail - Lat Challenge
6–7 Jul2024·2 stages
Distance
87km
Finishers
158132 men26 women
Winning time
8:29:38h
Median pace
6.74km/h
Pace distribution
158 finishers · 5.09–10.24 km/h · mean 6.93
Every finisher ran the same 87 km course, so these paces are directly comparable.
Histogram of finisher pace. 158 finishers ranged from 5.09 to 10.24 kilometres per hour, with a mean of 6.93 and a median of 6.74. The busiest band is 6.0 to 6.5 kilometres per hour, with 37 finishers.
Results
Ranks 51–100 of 158
| Rank | Runner | Time | Pace | Cat. | Placing |
|---|---|---|---|---|---|
| 51 | 11:52:27h | 7.33 | M50 | 48th M · 4th M50 | |
| 52 | Tarahumaras Muret | 11:54:15h | 7.31 | M23 | 49th M · 16th M23 |
| 53 | *Toulouse | 11:56:35h | 7.29 | M23 | 50th M · 17th M23 |
| 54 | *Bon-Encontre | 11:58:28h | 7.26 | M23 | 51st M · 18th M23 |
| 55 | 12:00:06h | 7.25 | M23 | 52nd M · 19th M23 | |
| 56 | 12:01:54h | 7.23 | M35 | 53rd M · 10th M35 | |
| 57 | CA Balma | 12:02:29h | 7.22 | M23 | 54th M · 20th M23 |
| 58 | Blagnac SC | 12:03:12h | 7.22 | M40 | 55th M · 8th M40 |
| 59 | 12:04:21h | 7.21 | M23 | 56th M · 21st M23 | |
| 60 | Captrail Gagnac | 12:09:14h | 7.16 | M23 | 57th M · 22nd M23 |
| 61 | 12:11:56h | 7.13 | M40 | 58th M · 9th M40 | |
| 62 | SUA Athlétisme | 12:12:12h | 7.13 | M40 | 59th M · 10th M40 |
| 63 | CAM | 12:14:19h | 7.11 | M23 | 60th M · 23rd M23 |
| 64 | 12:16:32h | 7.09 | M45 | 61st M · 10th M45 | |
| 65 | 12:18:37h | 7.07 | M35 | 62nd M · 11th M35 | |
| 66 | Aisc Running | 12:20:44h | 7.05 | M40 | 63rd M · 11th M40 |
| 67 | CAF Bordeaux | 12:23:50h | 7.02 | W35 | 4th F · 1st W35 |
| 68 | 12:25:02h | 7.01 | M40 | 64th M · 12th M40 | |
| 69 | *Talence | 12:27:54h | 6.98 | M35 | 65th M · 12th M35 |
| 70 | Bouliac Sports Plaisirs | 12:29:15h | 6.97 | M40 | 66th M · 13th M40 |
| 71 | CAF Toulouse Trail | 12:29:51h | 6.96 | M40 | 67th M · 14th M40 |
| 72 | Colomiers Running Club | 12:33:17h | 6.93 | M40 | 68th M · 15th M40 |
| 73 | Agpb | 12:36:49h | 6.90 | M45 | 69th M · 11th M45 |
| 74 | SUA Athlétisme | 12:44:01h | 6.83 | M45 | 70th M · 12th M45 |
| 75 | Portet Athletic Club | 12:45:56h | 6.82 | M50 | 71st M · 5th M50 |
| 76 | 12:46:34h | 6.81 | M50 | 72nd M · 6th M50 | |
| 77 | Tarahumaras | 12:51:05h | 6.77 | M40 | 73rd M · 16th M40 |
| 78 | TUB | 12:51:37h | 6.76 | M50 | 74th M · 7th M50 |
| 79 | THR | 12:52:23h | 6.76 | M40 | 75th M · 17th M40 |
| 80 | Elan Girouardai | 12:54:53h | 6.74 | M45 | 76th M · 13th M45 |
| 81 | CAF Bordeaux | 12:57:18h | 6.72 | W23 | 5th F · 3rd W23 |
| 82 | 12:58:24h | 6.71 | M23 | 77th M · 24th M23 | |
| 83 | 12:58:46h | 6.70 | M35 | 78th M · 13th M35 | |
| 84 | *Saint-Laurent | 12:59:52h | 6.69 | M55 | 79th M · 3rd M55 |
| 85 | *Aurice | 13:04:09h | 6.66 | M45 | 80th M · 14th M45 |
| 86 | Bsca | 13:10:46h | 6.60 | M55 | 81st M · 4th M55 |
| 87 | 13:14:52h | 6.57 | M35 | 82nd M · 14th M35 | |
| 88 | Zatac Liège | 13:16:15h | 6.56 | M35 | 83rd M · 15th M35 |
| 89 | Tarahumaras Muret Club | 13:16:48h | 6.55 | W40 | 6th F · 1st W40 |
| 90 | 13:16:59h | 6.55 | M35 | 84th M · 16th M35 | |
| 91 | *Aurillac | 13:20:03h | 6.53 | W40 | 7th F · 2nd W40 |
| 92 | Gruissan Sports Évènem... | 13:24:07h | 6.49 | M40 | 85th M · 18th M40 |
| 93 | Patatrail | 13:24:27h | 6.49 | M55 | 86th M · 5th M55 |
| 94 | Bouliac Sports Plaisirs | 13:25:02h | 6.48 | M35 | 87th M · 17th M35 |
| 95 | Gringo D'OR | 13:25:59h | 6.48 | M45 | 88th M · 15th M45 |
| 96 | 13:27:15h | 6.47 | W23 | 8th F · 4th W23 | |
| 97 | Athle632 | 13:27:35h | 6.46 | M40 | 89th M · 19th M40 |
| 98 | Team Galb 12 | 13:28:34h | 6.46 | M45 | 90th M · 16th M45 |
| 99 | ASD Trail Monte Casto | 13:30:45h | 6.44 | M60 | 91st M · 1st M60 |
| 100 | Stade Toulousain Athle... | 13:36:42h | 6.39 | M35 | 92nd M · 18th M35 |
- 5148th M · 4th M50Time11:52:27hPace7.33Cat.M50
- 52Tarahumaras Muret49th M · 16th M23Time11:54:15hPace7.31Cat.M23
- 53*Toulouse50th M · 17th M23Time11:56:35hPace7.29Cat.M23
- 54*Bon-Encontre51st M · 18th M23Time11:58:28hPace7.26Cat.M23
- 5552nd M · 19th M23Time12:00:06hPace7.25Cat.M23
- 5653rd M · 10th M35Time12:01:54hPace7.23Cat.M35
- 57CA Balma54th M · 20th M23Time12:02:29hPace7.22Cat.M23
- 58Blagnac SC55th M · 8th M40Time12:03:12hPace7.22Cat.M40
- 5956th M · 21st M23Time12:04:21hPace7.21Cat.M23
- 60Captrail Gagnac57th M · 22nd M23Time12:09:14hPace7.16Cat.M23
- 6158th M · 9th M40Time12:11:56hPace7.13Cat.M40
- 62SUA Athlétisme59th M · 10th M40Time12:12:12hPace7.13Cat.M40
- 63CAM60th M · 23rd M23Time12:14:19hPace7.11Cat.M23
- 6461st M · 10th M45Time12:16:32hPace7.09Cat.M45
- 6562nd M · 11th M35Time12:18:37hPace7.07Cat.M35
- 66Aisc Running63rd M · 11th M40Time12:20:44hPace7.05Cat.M40
- 67CAF Bordeaux4th F · 1st W35Time12:23:50hPace7.02Cat.W35
- 6864th M · 12th M40Time12:25:02hPace7.01Cat.M40
- 69*Talence65th M · 12th M35Time12:27:54hPace6.98Cat.M35
- 70Bouliac Sports Plaisirs66th M · 13th M40Time12:29:15hPace6.97Cat.M40
- 71CAF Toulouse Trail67th M · 14th M40Time12:29:51hPace6.96Cat.M40
- 72Colomiers Running Club68th M · 15th M40Time12:33:17hPace6.93Cat.M40
- 73Agpb69th M · 11th M45Time12:36:49hPace6.90Cat.M45
- 74SUA Athlétisme70th M · 12th M45Time12:44:01hPace6.83Cat.M45
- 75Portet Athletic Club71st M · 5th M50Time12:45:56hPace6.82Cat.M50
- 7672nd M · 6th M50Time12:46:34hPace6.81Cat.M50
- 77Tarahumaras73rd M · 16th M40Time12:51:05hPace6.77Cat.M40
- 78TUB74th M · 7th M50Time12:51:37hPace6.76Cat.M50
- 79THR75th M · 17th M40Time12:52:23hPace6.76Cat.M40
- 80Elan Girouardai76th M · 13th M45Time12:54:53hPace6.74Cat.M45
- 81CAF Bordeaux5th F · 3rd W23Time12:57:18hPace6.72Cat.W23
- 8277th M · 24th M23Time12:58:24hPace6.71Cat.M23
- 8378th M · 13th M35Time12:58:46hPace6.70Cat.M35
- 84*Saint-Laurent79th M · 3rd M55Time12:59:52hPace6.69Cat.M55
- 85*Aurice80th M · 14th M45Time13:04:09hPace6.66Cat.M45
- 86Bsca81st M · 4th M55Time13:10:46hPace6.60Cat.M55
- 8782nd M · 14th M35Time13:14:52hPace6.57Cat.M35
- 88Zatac Liège83rd M · 15th M35Time13:16:15hPace6.56Cat.M35
- 89Tarahumaras Muret Club6th F · 1st W40Time13:16:48hPace6.55Cat.W40
- 9084th M · 16th M35Time13:16:59hPace6.55Cat.M35
- 91*Aurillac7th F · 2nd W40Time13:20:03hPace6.53Cat.W40
- 92Gruissan Sports Évènem...85th M · 18th M40Time13:24:07hPace6.49Cat.M40
- 93Patatrail86th M · 5th M55Time13:24:27hPace6.49Cat.M55
- 94Bouliac Sports Plaisirs87th M · 17th M35Time13:25:02hPace6.48Cat.M35
- 95Gringo D'OR88th M · 15th M45Time13:25:59hPace6.48Cat.M45
- 968th F · 4th W23Time13:27:15hPace6.47Cat.W23
- 97Athle63289th M · 19th M40Time13:27:35hPace6.46Cat.M40
- 98Team Galb 1290th M · 16th M45Time13:28:34hPace6.46Cat.M45
- 99ASD Trail Monte Casto91st M · 1st M60Time13:30:45hPace6.44Cat.M60
- 100Stade Toulousain Athle...92nd M · 18th M35Time13:36:42hPace6.39Cat.M35
Showing ranks 51–100 of 158